createdAt,value
2022-10-08T00:00:18.663Z,10.93
2022-10-08T00:01:23.001Z,10.93
2022-10-08T00:02:27.055Z,10.92
2022-10-08T00:03:31.467Z,10.91
2022-10-08T00:04:35.866Z,10.93
2022-10-08T00:05:40.179Z,10.93
2022-10-08T00:06:44.280Z,10.95
2022-10-08T00:07:48.592Z,10.95
2022-10-08T00:08:52.950Z,10.92
2022-10-08T00:09:57.298Z,10.93
2022-10-08T00:11:01.601Z,10.95
2022-10-08T00:12:05.851Z,10.97
2022-10-08T00:13:10.069Z,10.97
2022-10-08T00:14:14.266Z,10.96
2022-10-08T00:15:18.591Z,10.96
2022-10-08T00:16:22.872Z,10.98
2022-10-08T00:17:27.168Z,10.99
2022-10-08T00:18:31.390Z,11.00
2022-10-08T00:19:35.752Z,10.98
2022-10-08T00:20:40.081Z,10.97
2022-10-08T00:21:44.433Z,10.98
2022-10-08T00:22:49.340Z,11.00
2022-10-08T00:23:53.070Z,11.00
2022-10-08T00:24:57.394Z,10.99
2022-10-08T00:26:01.614Z,10.99
2022-10-08T00:27:05.987Z,11.01
2022-10-08T00:28:10.274Z,11.00
2022-10-08T00:29:14.470Z,11.03
2022-10-08T00:30:18.812Z,11.03
2022-10-08T00:31:23.212Z,11.04
2022-10-08T00:32:27.494Z,11.01
2022-10-08T00:33:31.807Z,11.02
2022-10-08T00:34:36.136Z,11.00
2022-10-08T00:35:40.367Z,11.02
2022-10-08T00:36:44.538Z,11.00
2022-10-08T00:37:48.963Z,11.04
2022-10-08T00:38:53.226Z,11.06
2022-10-08T00:39:57.443Z,11.05
2022-10-08T00:41:01.731Z,11.04
2022-10-08T00:42:06.090Z,11.04
2022-10-08T00:43:10.416Z,11.06
2022-10-08T00:44:14.639Z,11.07
2022-10-08T00:45:19.043Z,11.09
2022-10-08T00:46:23.481Z,11.09
2022-10-08T00:47:27.657Z,11.09
2022-10-08T00:48:31.997Z,11.07
2022-10-08T00:49:36.400Z,11.06
2022-10-08T00:50:40.572Z,11.05
2022-10-08T00:51:44.893Z,11.06
2022-10-08T00:52:49.823Z,11.06
2022-10-08T00:53:53.509Z,11.07
2022-10-08T00:54:57.742Z,11.05
2022-10-08T00:56:02.117Z,11.03
2022-10-08T00:57:06.236Z,11.04
2022-10-08T00:58:10.683Z,11.02
2022-10-08T00:59:15.004Z,11.01
2022-10-08T01:00:19.197Z,11.00
2022-10-08T01:01:23.613Z,10.99
2022-10-08T01:02:27.889Z,10.97
2022-10-08T01:03:32.175Z,10.97
2022-10-08T01:04:36.454Z,10.95
2022-10-08T01:05:40.622Z,10.95
2022-10-08T01:06:45.054Z,10.95
2022-10-08T01:07:49.238Z,10.94
2022-10-08T01:08:53.663Z,10.93
2022-10-08T01:09:57.989Z,10.93
2022-10-08T01:11:02.194Z,10.93
2022-10-08T01:12:06.479Z,10.93
2022-10-08T01:13:10.761Z,10.93
2022-10-08T01:14:15.042Z,10.92
2022-10-08T01:15:19.458Z,10.92
2022-10-08T01:16:23.788Z,10.92
2022-10-08T01:17:28.000Z,10.91
2022-10-08T01:18:32.240Z,10.91
2022-10-08T01:19:36.623Z,10.92
2022-10-08T01:20:40.851Z,10.93
2022-10-08T01:21:45.053Z,10.91
2022-10-08T01:22:49.867Z,10.92
2022-10-08T01:23:53.780Z,10.91
2022-10-08T01:24:58.021Z,10.92
2022-10-08T01:26:02.325Z,10.92
2022-10-08T01:27:06.676Z,10.91
2022-10-08T01:28:11.085Z,10.90
2022-10-08T01:29:15.214Z,10.90
2022-10-08T01:30:19.571Z,10.89
2022-10-08T01:31:23.977Z,10.89
2022-10-08T01:32:28.131Z,10.88
2022-10-08T01:33:32.330Z,10.87
2022-10-08T01:34:36.679Z,10.87
2022-10-08T01:35:40.949Z,10.87
2022-10-08T01:36:45.433Z,10.87
2022-10-08T01:37:49.691Z,10.86
2022-10-08T01:38:54.104Z,10.86
2022-10-08T01:39:58.373Z,10.86
2022-10-08T01:41:02.625Z,10.86
2022-10-08T01:42:06.961Z,10.86
2022-10-08T01:43:11.366Z,10.86
2022-10-08T01:44:15.537Z,10.86
2022-10-08T01:45:19.754Z,10.87
2022-10-08T01:46:24.101Z,10.87
2022-10-08T01:47:28.429Z,10.86
2022-10-08T01:48:32.734Z,10.85
2022-10-08T01:49:37.057Z,10.86
2022-10-08T01:50:41.286Z,10.85
2022-10-08T01:51:45.643Z,10.84
2022-10-08T01:52:50.198Z,10.84
2022-10-08T01:53:54.144Z,10.84
2022-10-08T01:54:58.502Z,10.83
2022-10-08T01:56:02.829Z,10.82
2022-10-08T01:57:07.021Z,10.83
2022-10-08T01:58:11.356Z,10.82
2022-10-08T01:59:15.600Z,10.81
2022-10-08T02:00:19.945Z,10.81
2022-10-08T02:01:24.287Z,10.82
2022-10-08T02:02:28.584Z,10.79
2022-10-08T02:03:32.804Z,10.75
2022-10-08T02:04:37.182Z,10.72
2022-10-08T02:05:41.382Z,10.72
2022-10-08T02:06:45.641Z,10.72
2022-10-08T02:07:49.985Z,10.72
2022-10-08T02:08:54.323Z,10.73
2022-10-08T02:09:58.688Z,10.72
2022-10-08T02:11:02.847Z,10.72
2022-10-08T02:12:07.147Z,10.73
2022-10-08T02:13:11.500Z,10.71
2022-10-08T02:14:15.672Z,10.71
2022-10-08T02:15:20.157Z,10.71
2022-10-08T02:16:24.386Z,10.71
2022-10-08T02:17:28.620Z,10.69
2022-10-08T02:18:32.858Z,10.71
2022-10-08T02:19:37.070Z,10.69
2022-10-08T02:20:41.466Z,10.69
2022-10-08T02:21:45.689Z,10.70
2022-10-08T02:22:50.027Z,10.70
2022-10-08T02:23:54.301Z,10.70
2022-10-08T02:24:58.523Z,10.68
2022-10-08T02:26:02.859Z,10.67
2022-10-08T02:27:07.099Z,10.67
2022-10-08T02:28:11.414Z,10.67
2022-10-08T02:29:15.676Z,10.67
2022-10-08T02:30:20.008Z,10.68
2022-10-08T02:31:24.452Z,10.68
2022-10-08T02:32:28.622Z,10.68
2022-10-08T02:33:32.835Z,10.68
2022-10-08T02:34:37.083Z,10.68
2022-10-08T02:35:41.433Z,10.68
2022-10-08T02:36:45.678Z,10.67
2022-10-08T02:37:49.956Z,10.69
2022-10-08T02:38:54.289Z,10.70
2022-10-08T02:39:58.530Z,10.70
2022-10-08T02:41:02.938Z,10.70
2022-10-08T02:42:07.316Z,10.70
2022-10-08T02:43:11.524Z,10.69
2022-10-08T02:44:15.885Z,10.70
2022-10-08T02:45:20.117Z,10.72
2022-10-08T02:46:25.339Z,10.72
2022-10-08T02:47:29.265Z,10.72
2022-10-08T02:48:33.597Z,10.73
2022-10-08T02:49:37.933Z,10.73
2022-10-08T02:50:42.179Z,10.73
2022-10-08T02:51:46.510Z,10.73
2022-10-08T02:52:50.935Z,10.74
2022-10-08T02:53:55.124Z,10.75
2022-10-08T02:54:59.383Z,10.75
2022-10-08T02:56:03.744Z,10.75
2022-10-08T02:57:09.662Z,10.74
2022-10-08T02:58:12.211Z,10.75
2022-10-08T02:59:19.647Z,10.76
2022-10-08T03:00:23.025Z,10.74
2022-10-08T03:01:27.260Z,10.74
2022-10-08T03:02:31.775Z,10.74
2022-10-08T03:03:35.993Z,10.75
2022-10-08T03:04:40.339Z,10.74
2022-10-08T03:05:44.566Z,10.74
2022-10-08T03:06:48.807Z,10.76
2022-10-08T03:07:53.194Z,10.74
2022-10-08T03:08:57.493Z,10.74
2022-10-08T03:10:01.678Z,10.73
2022-10-08T03:11:06.011Z,10.74
2022-10-08T03:12:10.351Z,10.75
2022-10-08T03:13:14.600Z,10.74
2022-10-08T03:14:18.910Z,10.74
2022-10-08T03:15:23.162Z,10.74
2022-10-08T03:16:27.514Z,10.73
2022-10-08T03:17:31.911Z,10.74
2022-10-08T03:18:36.165Z,10.74
2022-10-08T03:19:40.438Z,10.76
2022-10-08T03:20:44.787Z,10.75
2022-10-08T03:21:49.118Z,10.77
2022-10-08T03:22:53.428Z,10.77
2022-10-08T03:23:57.708Z,10.78
2022-10-08T03:25:01.991Z,10.77
2022-10-08T03:26:06.378Z,10.81
2022-10-08T03:27:10.661Z,10.81
2022-10-08T03:28:15.024Z,10.83
2022-10-08T03:29:19.246Z,10.82
2022-10-08T03:30:23.494Z,10.81
2022-10-08T03:31:27.845Z,10.79
2022-10-08T03:32:32.142Z,10.81
2022-10-08T03:33:36.496Z,10.80
2022-10-08T03:34:40.846Z,10.80
2022-10-08T03:35:45.156Z,10.79
2022-10-08T03:36:49.469Z,10.79
2022-10-08T03:37:53.792Z,10.78
2022-10-08T03:38:58.087Z,10.81
2022-10-08T03:40:02.335Z,10.80
2022-10-08T03:41:06.647Z,10.82
2022-10-08T03:42:10.880Z,10.83
2022-10-08T03:43:15.350Z,10.85
2022-10-08T03:44:19.540Z,10.85
2022-10-08T03:45:23.903Z,10.88
2022-10-08T03:46:28.324Z,10.85
2022-10-08T03:47:32.576Z,10.85
2022-10-08T03:48:36.863Z,10.83
2022-10-08T03:49:41.150Z,10.83
2022-10-08T03:50:45.374Z,10.82
2022-10-08T03:51:49.704Z,10.84
2022-10-08T03:52:53.905Z,10.86
2022-10-08T03:53:58.268Z,10.85
2022-10-08T03:55:02.585Z,10.85
2022-10-08T03:56:06.895Z,10.85
2022-10-08T03:57:11.241Z,10.84
2022-10-08T03:58:15.485Z,10.84
2022-10-08T03:59:19.838Z,10.86
2022-10-08T04:00:24.091Z,10.86
2022-10-08T04:01:28.543Z,10.87
2022-10-08T04:02:32.786Z,10.88
2022-10-08T04:03:36.940Z,10.88
2022-10-08T04:04:41.359Z,10.87
2022-10-08T04:05:45.595Z,10.88
2022-10-08T04:06:49.945Z,10.88
2022-10-08T04:07:54.372Z,10.87
2022-10-08T04:08:58.541Z,10.90
2022-10-08T04:10:02.804Z,10.91
2022-10-08T04:11:07.172Z,10.92
2022-10-08T04:12:11.492Z,10.96
2022-10-08T04:13:15.787Z,10.96
2022-10-08T04:14:20.094Z,10.95
2022-10-08T04:15:24.486Z,10.95
2022-10-08T04:16:28.774Z,10.97
2022-10-08T04:17:33.058Z,10.96
2022-10-08T04:18:37.382Z,10.99
2022-10-08T04:19:41.725Z,10.99
2022-10-08T04:20:46.023Z,11.00
2022-10-08T04:21:50.335Z,11.02
2022-10-08T04:22:54.583Z,11.05
2022-10-08T04:23:59.019Z,11.05
2022-10-08T04:25:03.328Z,11.04
2022-10-08T04:26:07.528Z,11.05
2022-10-08T04:27:11.901Z,11.04
2022-10-08T04:28:16.216Z,11.03
2022-10-08T04:29:20.488Z,11.03
2022-10-08T04:30:24.728Z,11.03
2022-10-08T04:31:28.980Z,11.03
2022-10-08T04:32:33.415Z,11.02
2022-10-08T04:33:37.655Z,11.02
2022-10-08T04:34:41.833Z,11.02
2022-10-08T04:35:46.106Z,11.03
2022-10-08T04:36:50.563Z,11.01
2022-10-08T04:37:54.962Z,11.00
2022-10-08T04:38:59.212Z,10.97
2022-10-08T04:40:03.517Z,10.95
2022-10-08T04:41:07.952Z,10.96
2022-10-08T04:42:12.209Z,10.95
2022-10-08T04:43:16.508Z,10.94
2022-10-08T04:44:20.821Z,10.93
2022-10-08T04:45:25.139Z,10.94
2022-10-08T04:46:29.609Z,10.92
2022-10-08T04:47:33.666Z,10.93
2022-10-08T04:48:38.052Z,10.90
2022-10-08T04:49:42.368Z,10.89
2022-10-08T04:50:46.705Z,10.91
2022-10-08T04:51:51.029Z,10.90
2022-10-08T04:52:55.424Z,10.91
2022-10-08T04:53:59.740Z,10.90
2022-10-08T04:55:04.047Z,10.91
2022-10-08T04:56:08.377Z,10.89
2022-10-08T04:57:12.603Z,10.89
2022-10-08T04:58:16.959Z,10.92
2022-10-08T04:59:21.280Z,10.89
2022-10-08T05:00:25.592Z,10.87
2022-10-08T05:01:30.048Z,10.88
2022-10-08T05:02:34.204Z,10.86
2022-10-08T05:03:38.529Z,10.83
2022-10-08T05:04:42.803Z,10.84
2022-10-08T05:05:47.134Z,10.82
2022-10-08T05:06:51.461Z,10.84
2022-10-08T05:07:55.725Z,10.85
2022-10-08T05:08:59.969Z,10.83
2022-10-08T05:10:04.215Z,10.82
2022-10-08T05:11:08.479Z,10.82
2022-10-08T05:12:12.810Z,10.82
2022-10-08T05:13:17.218Z,10.82
2022-10-08T05:14:21.396Z,10.81
2022-10-08T05:15:25.786Z,10.81
2022-10-08T05:16:30.102Z,10.82
2022-10-08T05:17:34.394Z,10.82
2022-10-08T05:18:38.708Z,10.82
2022-10-08T05:19:42.988Z,10.82
2022-10-08T05:20:47.241Z,10.81
2022-10-08T05:21:51.532Z,10.82
2022-10-08T05:22:55.842Z,10.81
2022-10-08T05:24:00.085Z,10.82
2022-10-08T05:25:04.455Z,10.81
2022-10-08T05:26:08.768Z,10.83
2022-10-08T05:27:13.044Z,10.84
2022-10-08T05:28:17.431Z,10.84
2022-10-08T05:29:21.747Z,10.85
2022-10-08T05:30:25.990Z,10.85
2022-10-08T05:31:30.353Z,10.84
2022-10-08T05:32:34.441Z,10.84
2022-10-08T05:33:38.821Z,10.86
2022-10-08T05:34:43.157Z,10.87
2022-10-08T05:35:47.502Z,10.88
2022-10-08T05:36:51.822Z,10.89
2022-10-08T05:37:56.023Z,10.91
2022-10-08T05:39:00.460Z,10.90
2022-10-08T05:40:04.707Z,10.92
2022-10-08T05:41:09.039Z,10.96
2022-10-08T05:42:13.470Z,10.96
2022-10-08T05:43:17.720Z,10.98
2022-10-08T05:44:21.935Z,10.97
2022-10-08T05:45:26.312Z,10.99
2022-10-08T05:46:30.690Z,10.99
2022-10-08T05:47:34.877Z,11.04
2022-10-08T05:48:39.206Z,11.05
2022-10-08T05:49:43.353Z,11.07
2022-10-08T05:50:47.801Z,11.07
2022-10-08T05:51:52.147Z,11.11
2022-10-08T05:52:56.366Z,11.13
2022-10-08T05:54:00.732Z,11.13
2022-10-08T05:55:04.999Z,11.14
2022-10-08T05:56:09.294Z,11.16
2022-10-08T05:57:13.625Z,11.18
2022-10-08T05:58:17.856Z,11.20
2022-10-08T05:59:22.165Z,11.24
2022-10-08T06:00:26.519Z,11.22
2022-10-08T06:01:30.812Z,11.22
2022-10-08T06:02:35.100Z,11.23
2022-10-08T06:03:39.490Z,11.23
2022-10-08T06:04:43.725Z,11.24
2022-10-08T06:05:48.044Z,11.23
2022-10-08T06:06:52.258Z,11.25
2022-10-08T06:07:56.586Z,11.27
2022-10-08T06:09:00.924Z,11.27
2022-10-08T06:10:05.107Z,11.26
2022-10-08T06:11:09.473Z,11.26
2022-10-08T06:12:13.766Z,11.30
2022-10-08T06:13:18.080Z,11.35
2022-10-08T06:14:22.388Z,11.37
2022-10-08T06:15:26.689Z,11.36
2022-10-08T06:16:31.087Z,11.35
2022-10-08T06:17:35.252Z,11.34
2022-10-08T06:18:39.621Z,11.36
2022-10-08T06:19:43.930Z,11.36
2022-10-08T06:20:48.226Z,11.39
2022-10-08T06:21:52.551Z,11.41
2022-10-08T06:22:56.864Z,11.43
2022-10-08T06:24:01.155Z,11.45
2022-10-08T06:25:05.451Z,11.45
2022-10-08T06:26:09.738Z,11.45
2022-10-08T06:27:14.057Z,11.48
2022-10-08T06:28:18.334Z,11.50
2022-10-08T06:29:22.618Z,11.50
2022-10-08T06:30:26.952Z,11.51
2022-10-08T06:31:31.192Z,11.52
2022-10-08T06:32:35.509Z,11.54
2022-10-08T06:33:39.950Z,11.51
2022-10-08T06:34:44.143Z,11.51
2022-10-08T06:35:48.488Z,11.51
2022-10-08T06:36:52.905Z,11.54
2022-10-08T06:37:57.292Z,11.57
2022-10-08T06:39:01.566Z,11.56
2022-10-08T06:40:05.900Z,11.58
2022-10-08T06:41:10.262Z,11.58
2022-10-08T06:42:14.555Z,11.58
2022-10-08T06:43:18.853Z,11.59
2022-10-08T06:44:23.259Z,11.59
2022-10-08T06:45:27.448Z,11.60
2022-10-08T06:46:31.783Z,11.61
2022-10-08T06:47:36.176Z,11.63
2022-10-08T06:48:40.397Z,11.64
2022-10-08T06:49:44.854Z,11.66
2022-10-08T06:50:49.127Z,11.69
2022-10-08T06:51:53.460Z,11.70
2022-10-08T06:52:57.693Z,11.69
2022-10-08T06:54:07.288Z,11.71
2022-10-08T06:55:06.410Z,11.71
2022-10-08T06:56:10.768Z,11.71
2022-10-08T06:57:15.161Z,11.71
2022-10-08T06:58:19.314Z,11.70
2022-10-08T06:59:23.622Z,11.70
2022-10-08T07:00:27.966Z,11.69
2022-10-08T07:01:34.170Z,11.70
2022-10-08T07:02:36.596Z,11.70
2022-10-08T07:03:40.833Z,11.71
2022-10-08T07:04:45.073Z,11.73
2022-10-08T07:05:49.438Z,11.75
2022-10-08T07:06:53.690Z,11.77
2022-10-08T07:07:58.129Z,11.80
2022-10-08T07:09:02.328Z,11.83
2022-10-08T07:10:06.657Z,11.85
2022-10-08T07:11:11.083Z,11.86
2022-10-08T07:12:15.401Z,11.86
2022-10-08T07:13:19.739Z,11.88
2022-10-08T07:14:23.844Z,11.88
2022-10-08T07:15:28.237Z,11.89
2022-10-08T07:16:32.692Z,11.89
2022-10-08T07:17:36.835Z,11.94
2022-10-08T07:18:41.170Z,11.93
2022-10-08T07:19:45.467Z,11.96
2022-10-08T07:20:49.797Z,11.95
2022-10-08T07:21:56.808Z,11.97
2022-10-08T07:22:58.392Z,12.00
2022-10-08T07:24:02.809Z,12.02
2022-10-08T07:25:07.003Z,12.02
2022-10-08T07:26:11.366Z,12.03
2022-10-08T07:27:15.685Z,12.03
2022-10-08T07:28:20.055Z,12.05
2022-10-08T07:29:24.328Z,12.07
2022-10-08T07:30:28.608Z,12.10
2022-10-08T07:31:32.893Z,12.15
2022-10-08T07:32:37.112Z,12.15
2022-10-08T07:33:41.487Z,12.17
2022-10-08T07:34:45.719Z,12.19
2022-10-08T07:35:50.075Z,12.22
2022-10-08T07:36:54.394Z,12.29
2022-10-08T07:37:58.735Z,12.32
2022-10-08T07:39:03.062Z,12.34
2022-10-08T07:40:07.311Z,12.32
2022-10-08T07:41:11.787Z,12.34
2022-10-08T07:42:16.042Z,12.36
2022-10-08T07:43:20.352Z,12.39
2022-10-08T07:44:24.643Z,12.42
2022-10-08T07:45:29.069Z,12.47
2022-10-08T07:46:33.291Z,12.48
2022-10-08T07:47:37.630Z,12.50
2022-10-08T07:48:41.859Z,12.50
2022-10-08T07:49:46.242Z,12.53
2022-10-08T07:50:50.478Z,12.56
2022-10-08T07:51:54.857Z,12.60
2022-10-08T07:52:59.167Z,12.62
2022-10-08T07:54:03.584Z,12.64
2022-10-08T07:55:07.867Z,12.67
2022-10-08T07:56:12.012Z,12.68
2022-10-08T07:57:16.405Z,12.71
2022-10-08T07:58:20.638Z,12.74
2022-10-08T07:59:25.006Z,12.77
2022-10-08T08:00:29.356Z,12.80
2022-10-08T08:01:33.739Z,12.81
2022-10-08T08:02:38.022Z,12.82
2022-10-08T08:03:42.329Z,12.85
2022-10-08T08:04:46.582Z,12.89
2022-10-08T08:05:50.804Z,12.92
2022-10-08T08:06:55.319Z,12.96
2022-10-08T08:07:59.609Z,13.00
2022-10-08T08:09:03.848Z,13.05
2022-10-08T08:10:08.023Z,13.07
2022-10-08T08:11:12.385Z,13.11
2022-10-08T08:12:16.825Z,13.13
2022-10-08T08:13:21.211Z,13.16
2022-10-08T08:14:25.590Z,13.20
2022-10-08T08:15:29.879Z,13.21
2022-10-08T08:16:34.197Z,13.23
2022-10-08T08:17:38.490Z,13.22
2022-10-08T08:18:42.771Z,13.21
2022-10-08T08:19:47.065Z,13.20
2022-10-08T08:20:51.399Z,13.18
2022-10-08T08:21:55.712Z,13.16
2022-10-08T08:23:00.058Z,13.16
2022-10-08T08:24:04.375Z,13.17
2022-10-08T08:25:08.614Z,13.17
2022-10-08T08:26:13.052Z,13.18
2022-10-08T08:27:17.341Z,13.17
2022-10-08T08:28:21.746Z,13.17
2022-10-08T08:29:25.898Z,13.17
2022-10-08T08:30:30.101Z,13.15
2022-10-08T08:31:34.627Z,13.15
2022-10-08T08:32:38.861Z,13.14
2022-10-08T08:33:43.228Z,13.14
2022-10-08T08:34:47.439Z,13.14
2022-10-08T08:35:51.792Z,13.13
2022-10-08T08:36:56.129Z,13.13
2022-10-08T08:38:00.464Z,13.12
2022-10-08T08:39:04.719Z,13.13
2022-10-08T08:40:09.092Z,13.13
2022-10-08T08:41:16.423Z,13.12
2022-10-08T08:42:17.726Z,13.14
2022-10-08T08:43:22.088Z,13.17
2022-10-08T08:44:26.404Z,13.18
2022-10-08T08:45:47.420Z,13.18
2022-10-08T08:46:35.222Z,13.19
2022-10-08T08:47:39.451Z,13.18
2022-10-08T08:48:43.716Z,13.21
2022-10-08T08:49:48.098Z,13.24
2022-10-08T08:50:52.308Z,13.25
2022-10-08T08:51:56.810Z,13.25
2022-10-08T08:53:01.088Z,13.29
2022-10-08T08:54:05.449Z,13.29
2022-10-08T08:55:09.699Z,13.27
2022-10-08T08:56:14.036Z,13.28
2022-10-08T08:57:18.381Z,13.31
2022-10-08T08:58:22.617Z,13.35
2022-10-08T08:59:26.869Z,13.34
2022-10-08T09:00:31.254Z,13.33
2022-10-08T09:01:35.804Z,13.32
2022-10-08T09:02:39.947Z,13.33
2022-10-08T09:03:44.293Z,13.31
2022-10-08T09:04:48.527Z,13.26
2022-10-08T09:05:53.017Z,13.28
2022-10-08T09:06:57.256Z,13.32
2022-10-08T09:08:01.516Z,13.39
2022-10-08T09:09:05.877Z,13.41
2022-10-08T09:10:10.192Z,13.45
2022-10-08T09:11:14.527Z,13.49
2022-10-08T09:12:21.029Z,13.52
2022-10-08T09:13:23.172Z,13.53
2022-10-08T09:14:27.483Z,13.53
2022-10-08T09:15:31.832Z,13.53
2022-10-08T09:16:36.334Z,13.57
2022-10-08T09:17:40.588Z,13.59
2022-10-08T09:18:44.934Z,13.60
2022-10-08T09:19:49.266Z,13.69
2022-10-08T09:20:53.605Z,13.77
2022-10-08T09:21:57.862Z,13.82
2022-10-08T09:23:02.212Z,13.86
2022-10-08T09:24:06.553Z,13.90
2022-10-08T09:25:10.916Z,13.94
2022-10-08T09:26:15.192Z,14.00
2022-10-08T09:27:19.585Z,14.05
2022-10-08T09:28:23.960Z,14.08
2022-10-08T09:29:28.248Z,14.15
2022-10-08T09:30:32.661Z,14.19
2022-10-08T09:31:37.081Z,14.24
2022-10-08T09:32:41.398Z,14.30
2022-10-08T09:33:45.784Z,14.35
2022-10-08T09:34:50.127Z,14.39
2022-10-08T09:35:54.563Z,14.40
2022-10-08T09:36:58.890Z,14.40
2022-10-08T09:38:05.930Z,14.39
2022-10-08T09:39:07.552Z,14.40
2022-10-08T09:40:11.979Z,14.42
2022-10-08T09:41:16.167Z,14.46
2022-10-08T09:42:20.595Z,14.49
2022-10-08T09:43:24.939Z,14.53
2022-10-08T09:44:29.291Z,14.56
2022-10-08T09:45:33.541Z,14.60
2022-10-08T09:46:37.966Z,14.61
2022-10-08T09:47:42.247Z,14.61
2022-10-08T09:48:46.689Z,14.62
2022-10-08T09:49:50.931Z,14.62
2022-10-08T09:50:55.361Z,14.61
2022-10-08T09:51:59.742Z,14.60
2022-10-08T09:53:04.089Z,14.63
2022-10-08T09:54:08.458Z,14.64
2022-10-08T09:55:12.725Z,14.69
2022-10-08T09:56:17.205Z,14.71
2022-10-08T09:57:21.529Z,14.68
2022-10-08T09:58:25.865Z,14.67
2022-10-08T09:59:30.325Z,14.67
2022-10-08T10:00:34.605Z,14.72
2022-10-08T10:01:39.020Z,14.75
2022-10-08T10:02:43.235Z,14.75
2022-10-08T10:03:47.675Z,14.71
2022-10-08T10:04:51.927Z,14.69
2022-10-08T10:05:56.357Z,14.68
2022-10-08T10:07:00.678Z,14.69
2022-10-08T10:08:05.023Z,14.74
2022-10-08T10:09:09.336Z,14.81
2022-10-08T10:10:13.720Z,14.86
2022-10-08T10:11:18.054Z,14.90
2022-10-08T10:12:22.416Z,14.93
2022-10-08T10:13:26.679Z,14.93
2022-10-08T10:14:31.069Z,14.92
2022-10-08T10:15:35.385Z,14.92
2022-10-08T10:16:39.732Z,14.94
2022-10-08T10:17:43.976Z,14.97
2022-10-08T10:18:48.321Z,14.99
2022-10-08T10:19:52.722Z,15.01
2022-10-08T10:20:57.016Z,15.03
2022-10-08T10:22:01.454Z,15.08
2022-10-08T10:23:05.700Z,15.13
2022-10-08T10:24:10.006Z,15.13
2022-10-08T10:25:14.383Z,15.11
2022-10-08T10:26:18.768Z,15.14
2022-10-08T10:27:23.069Z,15.18
2022-10-08T10:28:30.494Z,15.21
2022-10-08T10:29:33.989Z,15.26
2022-10-08T10:30:38.295Z,15.29
2022-10-08T10:31:42.619Z,15.30
2022-10-08T10:32:47.092Z,15.35
2022-10-08T10:33:51.270Z,15.40
2022-10-08T10:34:55.551Z,15.44
2022-10-08T10:35:59.932Z,15.45
2022-10-08T10:37:04.288Z,15.42
2022-10-08T10:38:08.586Z,15.42
2022-10-08T10:39:12.908Z,15.44
2022-10-08T10:40:17.270Z,15.40
2022-10-08T10:41:21.460Z,15.36
2022-10-08T10:42:25.977Z,15.34
2022-10-08T10:43:30.219Z,15.34
2022-10-08T10:44:34.633Z,15.36
2022-10-08T10:45:39.068Z,15.40
2022-10-08T10:46:43.259Z,15.43
2022-10-08T10:47:47.687Z,15.46
2022-10-08T10:48:52.159Z,15.46
2022-10-08T10:49:56.444Z,15.46
2022-10-08T10:51:00.800Z,15.45
2022-10-08T10:52:05.113Z,15.44
2022-10-08T10:53:09.582Z,15.43
2022-10-08T10:54:13.878Z,15.33
2022-10-08T10:55:18.242Z,15.29
2022-10-08T10:56:22.499Z,15.32
2022-10-08T10:57:26.909Z,15.37
2022-10-08T10:58:31.168Z,15.40
2022-10-08T10:59:35.517Z,15.49
2022-10-08T11:00:39.874Z,15.61
2022-10-08T11:01:44.317Z,15.69
2022-10-08T11:02:48.993Z,15.72
2022-10-08T11:03:52.981Z,15.73
2022-10-08T11:05:01.547Z,15.71
2022-10-08T11:06:01.719Z,15.68
2022-10-08T11:07:06.079Z,15.71
2022-10-08T11:08:10.464Z,15.77
2022-10-08T11:09:14.729Z,15.82
2022-10-08T11:10:19.098Z,15.82
2022-10-08T11:11:23.483Z,15.73
2022-10-08T11:12:27.769Z,15.68
2022-10-08T11:13:32.216Z,15.57
2022-10-08T11:14:36.454Z,15.51
2022-10-08T11:15:40.959Z,15.40
2022-10-08T11:16:45.341Z,15.38
2022-10-08T11:17:49.702Z,15.38
2022-10-08T11:18:54.063Z,15.34
2022-10-08T11:19:58.356Z,15.29
2022-10-08T11:21:02.767Z,15.14
2022-10-08T11:22:07.194Z,15.10
2022-10-08T11:23:11.541Z,15.00
2022-10-08T11:24:15.888Z,14.42
2022-10-08T11:25:20.135Z,13.45
2022-10-08T11:26:24.458Z,12.98
2022-10-08T11:27:28.818Z,12.67
2022-10-08T11:28:39.226Z,12.55
2022-10-08T11:29:42.077Z,12.43
2022-10-08T11:30:46.353Z,12.29
2022-10-08T11:31:50.664Z,12.21
2022-10-08T11:32:54.990Z,12.10
2022-10-08T11:33:59.370Z,12.12
2022-10-08T11:35:03.702Z,12.17
2022-10-08T11:36:08.133Z,12.18
2022-10-08T11:37:12.500Z,12.20
2022-10-08T11:38:16.772Z,12.27
2022-10-08T11:39:21.148Z,12.38
2022-10-08T11:40:25.363Z,12.50
2022-10-08T11:41:29.748Z,12.59
2022-10-08T11:42:48.191Z,12.70
2022-10-08T11:43:38.424Z,12.80
2022-10-08T11:44:42.696Z,12.88
2022-10-08T11:45:47.044Z,13.01
2022-10-08T11:46:51.357Z,13.04
2022-10-08T11:47:55.706Z,13.14
2022-10-08T11:49:00.066Z,13.22
2022-10-08T11:50:04.430Z,13.28
2022-10-08T11:51:08.734Z,13.26
2022-10-08T11:52:12.994Z,13.29
2022-10-08T11:53:17.365Z,13.30
2022-10-08T11:54:21.779Z,13.25
2022-10-08T11:55:26.190Z,13.28
2022-10-08T11:56:30.492Z,13.35
2022-10-08T11:58:02.916Z,13.34
2022-10-08T11:58:39.072Z,13.33
2022-10-08T11:59:43.501Z,13.31
2022-10-08T12:00:47.690Z,13.29
2022-10-08T12:01:51.904Z,13.27
2022-10-08T12:02:56.433Z,13.29
2022-10-08T12:04:00.645Z,13.29
2022-10-08T12:05:04.930Z,13.28
2022-10-08T12:06:09.220Z,13.32
2022-10-08T12:07:13.594Z,13.33
2022-10-08T12:08:17.940Z,13.35
2022-10-08T12:09:22.231Z,13.34
2022-10-08T12:10:26.628Z,13.36
2022-10-08T12:11:30.952Z,13.39
2022-10-08T12:12:35.316Z,13.39
2022-10-08T12:13:39.563Z,13.40
2022-10-08T12:14:43.943Z,13.45
2022-10-08T12:15:48.474Z,13.46
2022-10-08T12:16:52.740Z,13.48
2022-10-08T12:17:56.894Z,13.50
2022-10-08T12:19:01.390Z,13.54
2022-10-08T12:20:05.704Z,13.54
2022-10-08T12:21:10.047Z,13.52
2022-10-08T12:22:14.397Z,13.55
2022-10-08T12:23:18.736Z,13.64
2022-10-08T12:24:23.104Z,13.87
2022-10-08T12:25:27.441Z,14.17
2022-10-08T12:26:31.717Z,14.43
2022-10-08T12:27:36.036Z,14.72
2022-10-08T12:28:40.473Z,14.97
2022-10-08T12:29:44.692Z,15.14
2022-10-08T12:30:49.113Z,15.28
2022-10-08T12:31:53.448Z,15.35
2022-10-08T12:32:57.791Z,15.36
2022-10-08T12:34:02.096Z,15.39
2022-10-08T12:35:06.528Z,15.38
2022-10-08T12:36:10.884Z,15.36
2022-10-08T12:37:16.708Z,15.35
2022-10-08T12:38:19.707Z,15.42
2022-10-08T12:39:23.967Z,15.56
2022-10-08T12:40:42.436Z,15.59
2022-10-08T12:41:45.694Z,15.59
2022-10-08T12:42:50.061Z,15.77
2022-10-08T12:43:54.314Z,15.92
2022-10-08T12:44:58.727Z,15.92
2022-10-08T12:46:03.210Z,15.84
2022-10-08T12:47:07.602Z,15.82
2022-10-08T12:48:11.898Z,15.99
2022-10-08T12:49:16.298Z,16.09
2022-10-08T12:50:20.674Z,15.99
2022-10-08T12:51:24.961Z,15.71
2022-10-08T12:52:29.405Z,15.72
2022-10-08T12:53:33.720Z,15.75
2022-10-08T12:54:38.167Z,15.63
2022-10-08T12:55:42.553Z,15.75
2022-10-08T12:56:46.927Z,15.78
2022-10-08T12:57:51.366Z,15.54
2022-10-08T12:58:55.561Z,15.68
2022-10-08T13:00:00.053Z,15.58
2022-10-08T13:01:04.493Z,15.20
2022-10-08T13:02:08.800Z,15.47
2022-10-08T13:03:13.056Z,15.47
2022-10-08T13:04:17.408Z,15.61
2022-10-08T13:05:21.719Z,15.65
2022-10-08T13:06:29.245Z,15.73
2022-10-08T13:07:30.431Z,15.65
2022-10-08T13:08:34.762Z,15.53
2022-10-08T13:09:39.165Z,15.62
2022-10-08T13:10:43.441Z,15.62
2022-10-08T13:11:52.139Z,15.68
2022-10-08T13:12:52.184Z,15.44
2022-10-08T13:13:56.609Z,15.47
2022-10-08T13:15:01.007Z,15.54
2022-10-08T13:16:05.457Z,15.51
2022-10-08T13:17:09.702Z,15.52
2022-10-08T13:18:13.992Z,15.30
2022-10-08T13:19:18.337Z,15.29
2022-10-08T13:20:22.681Z,15.32
2022-10-08T13:21:26.982Z,15.33
2022-10-08T13:22:31.401Z,15.32
2022-10-08T13:23:35.787Z,15.09
2022-10-08T13:24:40.073Z,15.01
2022-10-08T13:25:44.511Z,14.99
2022-10-08T13:26:48.866Z,14.88
2022-10-08T13:27:53.174Z,14.65
2022-10-08T13:29:00.698Z,14.30
2022-10-08T13:30:01.949Z,14.27
2022-10-08T13:31:06.349Z,14.28
2022-10-08T13:32:10.589Z,14.09
2022-10-08T13:33:14.991Z,14.08
2022-10-08T13:34:19.313Z,14.08
2022-10-08T13:35:23.771Z,14.11
2022-10-08T13:36:28.149Z,14.13
2022-10-08T13:37:32.377Z,14.13
2022-10-08T13:38:36.781Z,14.12
2022-10-08T13:39:41.168Z,14.09
2022-10-08T13:40:45.492Z,14.11
2022-10-08T13:41:52.371Z,14.15
2022-10-08T13:42:54.190Z,14.22
2022-10-08T13:43:58.537Z,14.28
2022-10-08T13:45:02.853Z,14.36
2022-10-08T13:46:07.260Z,14.37
2022-10-08T13:47:11.658Z,14.27
2022-10-08T13:48:15.954Z,14.14